createdAt,value
2017-01-05T00:00:14.936Z,0.47
2017-01-05T00:01:14.923Z,0.39
2017-01-05T00:02:14.904Z,0.36
2017-01-05T00:03:14.883Z,0.39
2017-01-05T00:04:14.870Z,0.42
2017-01-05T00:05:14.854Z,0.36
2017-01-05T00:06:14.841Z,0.44
2017-01-05T00:07:14.823Z,0.33
2017-01-05T00:08:14.807Z,0.32
2017-01-05T00:09:14.790Z,0.24
2017-01-05T00:10:14.775Z,0.28
2017-01-05T00:11:14.760Z,0.28
2017-01-05T00:12:14.747Z,0.28
2017-01-05T00:13:14.731Z,0.26
2017-01-05T00:14:14.716Z,0.26
2017-01-05T00:15:14.700Z,0.28
2017-01-05T00:16:14.680Z,0.28
2017-01-05T00:17:14.671Z,0.28
2017-01-05T00:18:14.651Z,0.23
2017-01-05T00:19:14.638Z,0.26
2017-01-05T00:20:14.618Z,0.28
2017-01-05T00:21:14.605Z,0.24
2017-01-05T00:22:14.588Z,0.26
2017-01-05T00:23:14.573Z,0.28
2017-01-05T00:24:14.562Z,0.24
2017-01-05T00:25:14.541Z,0.28
2017-01-05T00:26:14.525Z,0.24
2017-01-05T00:27:14.511Z,0.31
2017-01-05T00:28:14.493Z,0.33
2017-01-05T00:29:14.481Z,0.31
2017-01-05T00:30:14.463Z,0.33
2017-01-05T00:31:14.448Z,0.26
2017-01-05T00:32:14.430Z,0.35
2017-01-05T00:33:14.414Z,0.21
2017-01-05T00:34:14.791Z,0.28
2017-01-05T00:35:14.383Z,0.21
2017-01-05T00:36:14.369Z,0.2
2017-01-05T00:37:14.354Z,0.13
2017-01-05T00:38:14.339Z,0.13
2017-01-05T00:39:14.334Z,0.15
2017-01-05T00:40:14.304Z,0.08
2017-01-05T00:41:14.290Z,0.07
2017-01-05T00:42:14.275Z,0.15
2017-01-05T00:43:14.259Z,0.1
2017-01-05T00:44:14.242Z,0.11
2017-01-05T00:45:14.614Z,0.07
2017-01-05T00:46:14.211Z,0.07
2017-01-05T00:47:14.194Z,0.04
2017-01-05T00:48:14.180Z,0.07
2017-01-05T00:49:14.166Z,0.03
2017-01-05T00:50:14.150Z,0.08
2017-01-05T00:51:14.133Z,0.17
2017-01-05T00:52:14.116Z,0.13
2017-01-05T00:53:14.100Z,0.13
2017-01-05T00:54:14.088Z,0.14
2017-01-05T00:55:14.077Z,0.18
2017-01-05T00:56:14.055Z,0.11
2017-01-05T00:57:14.035Z,0.14
2017-01-05T00:58:14.022Z,0.2
2017-01-05T00:59:14.007Z,0.24
2017-01-05T01:00:13.993Z,0.26
2017-01-05T01:01:14.365Z,0.17
2017-01-05T01:02:13.975Z,0.18
2017-01-05T01:03:13.943Z,0.21
2017-01-05T01:04:13.936Z,0.15
2017-01-05T01:05:13.912Z,0.21
2017-01-05T01:06:13.895Z,0.23
2017-01-05T01:07:13.884Z,0.26
2017-01-05T01:08:13.862Z,0.26
2017-01-05T01:09:13.857Z,0.26
2017-01-05T01:10:14.222Z,0.31
2017-01-05T01:11:13.813Z,0.23
2017-01-05T01:12:13.801Z,0.17
2017-01-05T01:13:13.783Z,0.21
2017-01-05T01:14:13.770Z,0.17
2017-01-05T01:15:13.750Z,0.29
2017-01-05T01:16:13.735Z,0.15
2017-01-05T01:17:13.723Z,0.2
2017-01-05T01:18:13.733Z,0.29
2017-01-05T01:19:13.698Z,0.21
2017-01-05T01:20:13.672Z,0.17
2017-01-05T01:21:13.663Z,0.18
2017-01-05T01:22:13.672Z,0.24
2017-01-05T01:23:13.629Z,0.24
2017-01-05T01:24:13.608Z,0.11
2017-01-05T01:25:13.595Z,0.23
2017-01-05T01:26:13.586Z,0.26
2017-01-05T01:27:13.561Z,0.24
2017-01-05T01:28:13.546Z,0.17
2017-01-05T01:29:13.532Z,0.24
2017-01-05T01:30:13.517Z,0.21
2017-01-05T01:31:13.497Z,0.28
2017-01-05T01:32:13.490Z,0.26
2017-01-05T01:33:13.469Z,0.24
2017-01-05T01:34:13.455Z,0.23
2017-01-05T01:35:13.435Z,0.18
2017-01-05T01:36:13.450Z,0.24
2017-01-05T01:37:13.407Z,0.18
2017-01-05T01:38:13.391Z,0.21
2017-01-05T01:39:13.374Z,0.17
2017-01-05T01:40:13.355Z,0.18
2017-01-05T01:41:13.340Z,0.1
2017-01-05T01:42:13.328Z,0
2017-01-05T01:43:13.315Z,0.1
2017-01-05T01:44:13.292Z,0.03
2017-01-05T01:45:13.280Z,0.1
2017-01-05T01:46:13.259Z,0.07
2017-01-05T01:47:13.633Z,0.1
2017-01-05T01:48:13.232Z,0.15
2017-01-05T01:49:13.602Z,0.13
2017-01-05T01:50:13.200Z,0.21
2017-01-05T01:51:13.181Z,0.11
2017-01-05T01:52:13.168Z,0.13
2017-01-05T01:53:13.150Z,0.1
2017-01-05T01:54:13.138Z,0.02
2017-01-05T01:55:13.119Z,0.02
2017-01-05T01:56:13.107Z,0.11
2017-01-05T01:57:13.092Z,0.11
2017-01-05T01:58:13.075Z,0.04
2017-01-05T01:59:13.054Z,0.2
2017-01-05T02:00:13.042Z,0.1
2017-01-05T02:01:13.026Z,0.08
2017-01-05T02:02:13.014Z,0.11
2017-01-05T02:03:12.995Z,0.07
2017-01-05T02:04:12.978Z,-0.03
2017-01-05T02:05:12.961Z,-0.03
2017-01-05T02:06:12.950Z,-0.04
2017-01-05T02:07:12.928Z,0
2017-01-05T02:08:12.921Z,-0.08
2017-01-05T02:09:12.897Z,-0.08
2017-01-05T02:10:12.886Z,-0.1
2017-01-05T02:11:12.867Z,-0.16
2017-01-05T02:12:12.850Z,-0.14
2017-01-05T02:13:12.838Z,-0.16
2017-01-05T02:14:12.823Z,-0.18
2017-01-05T02:15:12.808Z,-0.16
2017-01-05T02:16:12.789Z,-0.19
2017-01-05T02:17:12.772Z,-0.1
2017-01-05T02:18:12.757Z,-0.16
2017-01-05T02:19:12.739Z,-0.14
2017-01-05T02:20:12.726Z,-0.14
2017-01-05T02:21:12.705Z,-0.1
2017-01-05T02:22:12.695Z,-0.08
2017-01-05T02:23:12.680Z,0.02
2017-01-05T02:24:12.659Z,0
2017-01-05T02:25:12.652Z,-0.05
2017-01-05T02:26:12.628Z,-0.18
2017-01-05T02:27:12.616Z,0
2017-01-05T02:28:12.594Z,-0.01
2017-01-05T02:29:12.583Z,0
2017-01-05T02:30:12.567Z,0.02
2017-01-05T02:31:12.551Z,-0.05
2017-01-05T02:32:12.532Z,-0.11
2017-01-05T02:33:12.516Z,-0.05
2017-01-05T02:34:12.502Z,-0.04
2017-01-05T02:35:12.487Z,0.02
2017-01-05T02:36:12.471Z,0.1
2017-01-05T02:37:12.453Z,0.02
2017-01-05T02:38:12.437Z,0.15
2017-01-05T02:39:12.426Z,0.13
2017-01-05T02:40:12.412Z,0.21
2017-01-05T02:41:12.393Z,0.21
2017-01-05T02:42:12.377Z,0.18
2017-01-05T02:43:12.361Z,0.17
2017-01-05T02:44:12.344Z,0.21
2017-01-05T02:45:12.328Z,0.29
2017-01-05T02:46:12.311Z,0.26
2017-01-05T02:47:12.294Z,0.26
2017-01-05T02:48:12.279Z,0.32
2017-01-05T02:49:12.264Z,0.26
2017-01-05T02:50:12.249Z,0.08
2017-01-05T02:51:12.233Z,0.17
2017-01-05T02:52:12.218Z,0.13
2017-01-05T02:53:12.200Z,0.1
2017-01-05T02:54:12.183Z,0.02
2017-01-05T02:55:12.166Z,0.14
2017-01-05T02:56:12.156Z,0.07
2017-01-05T02:57:12.137Z,0.15
2017-01-05T02:58:12.122Z,-0.01
2017-01-05T02:59:12.111Z,0.1
2017-01-05T03:00:12.093Z,-0.01
2017-01-05T03:01:12.082Z,0.03
2017-01-05T03:02:12.057Z,0.08
2017-01-05T03:03:12.043Z,0.13
2017-01-05T03:04:12.027Z,0.13
2017-01-05T03:05:12.010Z,0.04
2017-01-05T03:06:11.996Z,-0.05
2017-01-05T03:07:11.977Z,-0.04
2017-01-05T03:08:11.967Z,-0.03
2017-01-05T03:09:11.946Z,-0.03
2017-01-05T03:10:11.933Z,-0.03
2017-01-05T03:11:11.919Z,-0.01
2017-01-05T03:12:11.902Z,0.02
2017-01-05T03:13:11.882Z,-0.08
2017-01-05T03:14:11.870Z,0.02
2017-01-05T03:15:11.852Z,-0.05
2017-01-05T03:16:11.839Z,-0.03
2017-01-05T03:17:11.820Z,-0.04
2017-01-05T03:18:11.804Z,-0.05
2017-01-05T03:19:11.790Z,0.02
2017-01-05T03:20:11.773Z,-0.07
2017-01-05T03:21:11.758Z,-0.03
2017-01-05T03:22:11.741Z,-0.03
2017-01-05T03:23:11.724Z,-0.01
2017-01-05T03:24:11.709Z,-0.01
2017-01-05T03:25:11.693Z,-0.04
2017-01-05T03:26:11.680Z,-0.01
2017-01-05T03:27:11.660Z,-0.01
2017-01-05T03:28:11.647Z,-0.04
2017-01-05T03:29:11.634Z,0.03
2017-01-05T03:30:11.616Z,-0.1
2017-01-05T03:31:11.598Z,-0.07
2017-01-05T03:32:11.582Z,0
2017-01-05T03:33:11.566Z,0
2017-01-05T03:34:11.553Z,-0.11
2017-01-05T03:35:11.538Z,0.02
2017-01-05T03:36:11.522Z,-0.01
2017-01-05T03:37:11.503Z,-0.05
2017-01-05T03:38:11.488Z,-0.05
2017-01-05T03:39:11.471Z,-0.16
2017-01-05T03:40:11.456Z,-0.08
2017-01-05T03:41:11.437Z,-0.1
2017-01-05T03:42:11.424Z,-0.15
2017-01-05T03:43:11.408Z,-0.19
2017-01-05T03:44:11.395Z,-0.18
2017-01-05T03:45:11.376Z,-0.25
2017-01-05T03:46:11.358Z,-0.28
2017-01-05T03:47:11.347Z,-0.36
2017-01-05T03:48:11.333Z,-0.21
2017-01-05T03:49:11.310Z,-0.33
2017-01-05T03:50:11.299Z,-0.23
2017-01-05T03:51:11.281Z,-0.26
2017-01-05T03:52:11.264Z,-0.22
2017-01-05T03:53:11.247Z,-0.15
2017-01-05T03:54:11.231Z,-0.14
2017-01-05T03:55:11.218Z,-0.14
2017-01-05T03:56:11.204Z,0
2017-01-05T03:57:11.186Z,-0.11
2017-01-05T03:58:11.190Z,-0.11
2017-01-05T03:59:11.156Z,-0.07
2017-01-05T04:00:11.140Z,-0.15
2017-01-05T04:01:11.124Z,-0.19
2017-01-05T04:02:11.103Z,-0.14
2017-01-05T04:03:11.091Z,-0.29
2017-01-05T04:04:11.076Z,-0.23
2017-01-05T04:05:11.057Z,-0.31
2017-01-05T04:06:11.048Z,-0.28
2017-01-05T04:07:11.027Z,-0.26
2017-01-05T04:08:11.016Z,-0.23
2017-01-05T04:09:10.998Z,-0.22
2017-01-05T04:10:10.978Z,-0.21
2017-01-05T04:11:10.961Z,-0.21
2017-01-05T04:12:10.946Z,-0.22
2017-01-05T04:13:10.930Z,-0.19
2017-01-05T04:14:10.918Z,-0.21
2017-01-05T04:15:10.897Z,-0.22
2017-01-05T04:16:10.886Z,-0.18
2017-01-05T04:17:10.865Z,-0.18
2017-01-05T04:18:10.852Z,-0.07
2017-01-05T04:19:10.832Z,-0.08
2017-01-05T04:20:11.208Z,-0.01
2017-01-05T04:21:10.799Z,-0.08
2017-01-05T04:22:10.787Z,0
2017-01-05T04:23:10.775Z,0
2017-01-05T04:24:10.764Z,-0.04
2017-01-05T04:25:10.745Z,0
2017-01-05T04:26:10.722Z,0.03
2017-01-05T04:27:10.707Z,0.11
2017-01-05T04:28:10.690Z,0.03
2017-01-05T04:29:10.675Z,0.17
2017-01-05T04:30:10.668Z,0.17
2017-01-05T04:31:10.642Z,0.17
2017-01-05T04:32:10.625Z,0.14
2017-01-05T04:33:10.611Z,0.11
2017-01-05T04:34:10.594Z,0.1
2017-01-05T04:35:10.576Z,0.18
2017-01-05T04:36:10.561Z,0.18
2017-01-05T04:37:10.548Z,0.21
2017-01-05T04:38:10.529Z,0.21
2017-01-05T04:39:10.513Z,0.26
2017-01-05T04:40:10.533Z,0.18
2017-01-05T04:41:10.870Z,0.18
2017-01-05T04:42:10.465Z,0.24
2017-01-05T04:43:10.459Z,0.2
2017-01-05T04:44:10.437Z,0.24
2017-01-05T04:45:10.418Z,0.26
2017-01-05T04:46:10.403Z,0.24
2017-01-05T04:47:10.385Z,0.28
2017-01-05T04:48:10.369Z,0.24
2017-01-05T04:49:10.353Z,0.24
2017-01-05T04:50:10.344Z,0.24
2017-01-05T04:51:10.325Z,0.24
2017-01-05T04:52:10.305Z,0.24
2017-01-05T04:53:10.292Z,0.32
2017-01-05T04:54:10.274Z,0.28
2017-01-05T04:55:10.258Z,0.28
2017-01-05T04:56:10.242Z,0.24
2017-01-05T04:57:10.228Z,0.24
2017-01-05T04:58:10.210Z,0.29
2017-01-05T04:59:10.195Z,0.32
2017-01-05T05:00:10.181Z,0.29
2017-01-05T05:01:10.163Z,0.28
2017-01-05T05:02:10.149Z,0.21
2017-01-05T05:03:10.131Z,0.31
2017-01-05T05:04:10.115Z,0.24
2017-01-05T05:05:10.101Z,0.29
2017-01-05T05:06:10.082Z,0.26
2017-01-05T05:07:10.067Z,0.28
2017-01-05T05:08:10.051Z,0.26
2017-01-05T05:09:10.033Z,0.24
2017-01-05T05:10:10.021Z,0.28
2017-01-05T05:11:10.003Z,0.26
2017-01-05T05:12:09.988Z,0.28
2017-01-05T05:13:09.970Z,0.28
2017-01-05T05:14:09.957Z,0.15
2017-01-05T05:15:09.940Z,0.28
2017-01-05T05:16:09.922Z,0.21
2017-01-05T05:17:09.906Z,0.2
2017-01-05T05:18:09.892Z,0.28
2017-01-05T05:19:09.878Z,0.18
2017-01-05T05:20:09.859Z,0.26
2017-01-05T05:21:09.873Z,0.24
2017-01-05T05:22:09.829Z,0.28
2017-01-05T05:23:09.812Z,0.24
2017-01-05T05:24:09.794Z,0.2
2017-01-05T05:25:09.778Z,0.26
2017-01-05T05:26:09.766Z,0.24
2017-01-05T05:27:09.754Z,0.26
2017-01-05T05:28:09.732Z,0.2
2017-01-05T05:29:09.717Z,0.2
2017-01-05T05:30:09.704Z,0.21
2017-01-05T05:31:09.685Z,0.29
2017-01-05T05:32:09.672Z,0.24
2017-01-05T05:33:09.651Z,0.24
2017-01-05T05:34:09.637Z,0.24
2017-01-05T05:35:09.620Z,0.21
2017-01-05T05:36:09.607Z,0.24
2017-01-05T05:37:09.588Z,0.18
2017-01-05T05:38:09.572Z,0.13
2017-01-05T05:39:09.583Z,0.13
2017-01-05T05:40:09.543Z,0.14
2017-01-05T05:41:09.527Z,0.1
2017-01-05T05:42:09.507Z,0.1
2017-01-05T05:43:09.493Z,0.1
2017-01-05T05:44:09.478Z,0.1
2017-01-05T05:45:09.461Z,0.07
2017-01-05T05:46:09.451Z,0.04
2017-01-05T05:47:09.426Z,0.13
2017-01-05T05:48:09.416Z,0.14
2017-01-05T05:49:09.395Z,0.14
2017-01-05T05:50:09.381Z,0.15
2017-01-05T05:51:09.365Z,0.1
2017-01-05T05:52:09.350Z,0.07
2017-01-05T05:53:09.333Z,0.07
2017-01-05T05:54:09.323Z,-0.03
2017-01-05T05:55:09.300Z,-0.03
2017-01-05T05:56:09.287Z,0.07
2017-01-05T05:57:09.269Z,0.08
2017-01-05T05:58:09.257Z,0.07
2017-01-05T05:59:09.237Z,0.07
2017-01-05T06:00:09.225Z,-0.04
2017-01-05T06:01:09.206Z,0.08
2017-01-05T06:02:09.187Z,-0.04
2017-01-05T06:03:09.175Z,-0.1
2017-01-05T06:04:09.158Z,0.02
2017-01-05T06:05:09.144Z,-0.1
2017-01-05T06:06:09.126Z,-0.14
2017-01-05T06:07:09.110Z,-0.08
2017-01-05T06:08:09.095Z,-0.16
2017-01-05T06:09:09.076Z,-0.16
2017-01-05T06:10:09.065Z,-0.23
2017-01-05T06:11:09.043Z,-0.21
2017-01-05T06:12:09.026Z,-0.26
2017-01-05T06:13:09.014Z,-0.19
2017-01-05T06:14:08.996Z,-0.23
2017-01-05T06:15:08.981Z,-0.22
2017-01-05T06:16:08.960Z,-0.21
2017-01-05T06:17:08.949Z,-0.14
2017-01-05T06:18:08.929Z,-0.11
2017-01-05T06:19:08.914Z,-0.07
2017-01-05T06:20:08.898Z,-0.07
2017-01-05T06:21:08.880Z,-0.04
2017-01-05T06:22:08.864Z,-0.05
2017-01-05T06:23:08.848Z,-0.1
2017-01-05T06:24:08.831Z,-0.07
2017-01-05T06:25:08.814Z,-0.15
2017-01-05T06:26:08.803Z,0
2017-01-05T06:27:08.788Z,0.04
2017-01-05T06:28:08.765Z,-0.04
2017-01-05T06:29:08.749Z,0
2017-01-05T06:30:08.748Z,0
2017-01-05T06:31:08.720Z,-0.04
2017-01-05T06:32:08.703Z,-0.08
2017-01-05T06:33:09.073Z,-0.04
2017-01-05T06:34:08.669Z,-0.04
2017-01-05T06:35:08.656Z,0.08
2017-01-05T06:36:08.640Z,0.13
2017-01-05T06:37:08.621Z,0.02
2017-01-05T06:38:08.610Z,0.14
2017-01-05T06:39:08.586Z,0.08
2017-01-05T06:40:08.572Z,0.11
2017-01-05T06:41:08.557Z,0.11
2017-01-05T06:42:08.548Z,0.15
2017-01-05T06:43:08.524Z,0.13
2017-01-05T06:44:08.507Z,0.04
2017-01-05T06:45:08.492Z,0.04
2017-01-05T06:46:08.475Z,0.07
2017-01-05T06:47:08.458Z,0.11
2017-01-05T06:48:08.441Z,0.08
2017-01-05T06:49:08.429Z,0.08
2017-01-05T06:50:08.410Z,0.03
2017-01-05T06:51:08.403Z,0.14
2017-01-05T06:52:08.379Z,0.11
2017-01-05T06:53:08.363Z,0.11
2017-01-05T06:54:08.347Z,-0.05
2017-01-05T06:55:08.331Z,-0.04
2017-01-05T06:56:08.318Z,-0.04
2017-01-05T06:57:08.300Z,-0.04
2017-01-05T06:58:08.282Z,-0.07
2017-01-05T06:59:08.274Z,-0.04
2017-01-05T07:00:08.637Z,0
2017-01-05T07:01:08.235Z,0.04
2017-01-05T07:02:08.217Z,0.04
2017-01-05T07:03:08.201Z,0.11
2017-01-05T07:04:08.224Z,0.07
2017-01-05T07:05:08.170Z,0.08
2017-01-05T07:06:08.152Z,0.04
2017-01-05T07:07:08.136Z,0.03
2017-01-05T07:08:08.120Z,0.03
2017-01-05T07:09:08.117Z,0.07
2017-01-05T07:10:08.089Z,0.04
2017-01-05T07:11:08.071Z,0.02
2017-01-05T07:12:08.058Z,0.03
2017-01-05T07:13:08.037Z,0.03
2017-01-05T07:14:08.028Z,0.11
2017-01-05T07:15:08.007Z,-0.04
2017-01-05T07:16:07.991Z,0.02
2017-01-05T07:17:07.980Z,0.03
2017-01-05T07:18:07.960Z,0.02
2017-01-05T07:19:07.945Z,-0.01
2017-01-05T07:20:07.930Z,0
2017-01-05T07:21:07.921Z,-0.18
2017-01-05T07:22:07.897Z,-0.16
2017-01-05T07:23:07.881Z,-0.21
2017-01-05T07:24:07.862Z,-0.21
2017-01-05T07:25:07.851Z,-0.18
2017-01-05T07:26:07.833Z,-0.26
2017-01-05T07:27:07.816Z,-0.16
2017-01-05T07:28:07.799Z,-0.14
2017-01-05T07:29:07.784Z,-0.14
2017-01-05T07:30:07.770Z,-0.14
2017-01-05T07:31:07.750Z,-0.15
2017-01-05T07:32:08.122Z,-0.1
2017-01-05T07:33:07.719Z,-0.08
2017-01-05T07:34:07.702Z,-0.14
2017-01-05T07:35:07.687Z,-0.08
2017-01-05T07:36:08.062Z,-0.11
2017-01-05T07:37:07.653Z,-0.14
2017-01-05T07:38:07.639Z,-0.14
2017-01-05T07:39:07.623Z,-0.16
2017-01-05T07:40:07.605Z,-0.11
2017-01-05T07:41:07.593Z,-0.16
2017-01-05T07:42:07.579Z,-0.18
2017-01-05T07:43:07.561Z,-0.11
2017-01-05T07:44:07.545Z,-0.15
2017-01-05T07:45:07.530Z,-0.1
2017-01-05T07:46:07.512Z,0
2017-01-05T07:47:07.501Z,-0.05
2017-01-05T07:48:07.480Z,-0.07
2017-01-05T07:49:07.462Z,-0.18
2017-01-05T07:50:07.447Z,-0.15
2017-01-05T07:51:07.434Z,-0.03
2017-01-05T07:52:07.413Z,-0.03
2017-01-05T07:53:07.400Z,0
2017-01-05T07:54:07.383Z,-0.01
2017-01-05T07:55:07.368Z,-0.07
2017-01-05T07:56:07.355Z,-0.05
2017-01-05T07:57:07.337Z,0.02
2017-01-05T07:58:07.319Z,0.1
2017-01-05T07:59:07.302Z,0.08
2017-01-05T08:00:07.290Z,0.1
2017-01-05T08:01:07.272Z,0.1
2017-01-05T08:02:07.291Z,0.14
2017-01-05T08:03:07.244Z,0.15
2017-01-05T08:04:07.227Z,0.13
2017-01-05T08:05:07.208Z,0.2
2017-01-05T08:06:07.193Z,0.24
2017-01-05T08:07:07.178Z,0.2
2017-01-05T08:08:07.167Z,0.21
2017-01-05T08:09:07.144Z,0.23
2017-01-05T08:10:07.130Z,0.23
2017-01-05T08:11:07.111Z,0.15
2017-01-05T08:12:07.104Z,0.18
2017-01-05T08:13:07.082Z,0.21
2017-01-05T08:14:07.066Z,0.28
2017-01-05T08:15:07.053Z,0.24
2017-01-05T08:16:07.034Z,0.33
2017-01-05T08:17:07.017Z,0.24
2017-01-05T08:18:07.003Z,0.28
2017-01-05T08:19:06.986Z,0.28
2017-01-05T08:20:06.974Z,0.24
2017-01-05T08:21:06.961Z,0.24
2017-01-05T08:22:06.942Z,0.32
2017-01-05T08:23:06.926Z,0.31
2017-01-05T08:24:06.911Z,0.36
2017-01-05T08:25:06.892Z,0.33
2017-01-05T08:26:06.879Z,0.31
2017-01-05T08:27:06.861Z,0.31
2017-01-05T08:28:06.845Z,0.26
2017-01-05T08:29:06.836Z,0.32
2017-01-05T08:30:06.818Z,0.28
2017-01-05T08:31:06.802Z,0.29
2017-01-05T08:32:06.788Z,0.28
2017-01-05T08:33:06.769Z,0.28
2017-01-05T08:34:06.757Z,0.32
2017-01-05T08:35:06.738Z,0.29
2017-01-05T08:36:06.723Z,0.42
2017-01-05T08:37:06.705Z,0.39
2017-01-05T08:38:06.695Z,0.38
2017-01-05T08:39:06.678Z,0.38
2017-01-05T08:40:07.048Z,0.38
2017-01-05T08:41:06.647Z,0.47
2017-01-05T08:42:06.635Z,0.5
2017-01-05T08:43:06.617Z,0.42
2017-01-05T08:44:06.600Z,0.49
2017-01-05T08:45:06.585Z,0.57
2017-01-05T08:46:06.568Z,0.55
2017-01-05T08:47:06.554Z,0.6
2017-01-05T08:48:06.546Z,0.6
2017-01-05T08:49:06.524Z,0.44
2017-01-05T08:50:06.506Z,0.47
2017-01-05T08:51:06.495Z,0.49
2017-01-05T08:52:06.477Z,0.41
2017-01-05T08:53:06.467Z,0.38
2017-01-05T08:54:06.449Z,0.44
2017-01-05T08:55:06.427Z,0.35
2017-01-05T08:56:06.415Z,0.47
2017-01-05T08:57:06.399Z,0.41
2017-01-05T08:58:06.383Z,0.46
2017-01-05T08:59:06.369Z,0.47
2017-01-05T09:00:06.355Z,0.47
2017-01-05T09:01:06.340Z,0.42
2017-01-05T09:02:06.322Z,0.41
2017-01-05T09:03:06.310Z,0.46
2017-01-05T09:04:06.295Z,0.49
2017-01-05T09:05:06.278Z,0.46
2017-01-05T09:06:06.261Z,0.46
2017-01-05T09:07:06.263Z,0.47
2017-01-05T09:08:06.232Z,0.42
2017-01-05T09:09:06.218Z,0.47
2017-01-05T09:10:06.200Z,0.44
2017-01-05T09:11:06.183Z,0.53
2017-01-05T09:12:06.167Z,0.44
2017-01-05T09:13:06.156Z,0.5
2017-01-05T09:14:06.141Z,0.47
2017-01-05T09:15:06.128Z,0.42
2017-01-05T09:16:06.111Z,0.36
2017-01-05T09:17:06.091Z,0.32
2017-01-05T09:18:06.107Z,0.24
2017-01-05T09:19:06.060Z,0.2
2017-01-05T09:20:06.044Z,0.2
2017-01-05T09:21:06.030Z,0.07
2017-01-05T09:22:06.018Z,0.08
2017-01-05T09:23:06.002Z,0.07
2017-01-05T09:24:05.984Z,0.04
2017-01-05T09:25:05.970Z,0.02
2017-01-05T09:26:05.953Z,0.08
2017-01-05T09:27:05.934Z,0.08
2017-01-05T09:28:05.923Z,0.08
2017-01-05T09:29:05.903Z,0.08
2017-01-05T09:30:05.891Z,0.11
2017-01-05T09:31:05.875Z,0.08
2017-01-05T09:32:05.862Z,0.03
2017-01-05T09:33:05.843Z,0
2017-01-05T09:34:05.828Z,0.15
2017-01-05T09:35:05.810Z,0.03
2017-01-05T09:36:05.798Z,0.11
2017-01-05T09:37:05.780Z,0.2
2017-01-05T09:38:05.765Z,0.08
2017-01-05T09:39:05.782Z,0.17
2017-01-05T09:40:05.730Z,0.2
2017-01-05T09:41:05.722Z,0.17
2017-01-05T09:42:05.702Z,0.14
2017-01-05T09:43:05.682Z,0.15
2017-01-05T09:44:05.670Z,0.2
2017-01-05T09:45:06.039Z,0.2
2017-01-05T09:46:05.635Z,0.18
2017-01-05T09:47:05.620Z,0.21
2017-01-05T09:48:05.606Z,0.18
2017-01-05T09:49:05.587Z,0.23
2017-01-05T09:50:05.574Z,0.17
2017-01-05T09:51:05.560Z,0.26
2017-01-05T09:52:05.542Z,0.23
2017-01-05T09:53:05.526Z,0.26
2017-01-05T09:54:05.510Z,0.24
2017-01-05T09:55:05.493Z,0.28
2017-01-05T09:56:05.481Z,0.23
2017-01-05T09:57:05.849Z,0.2
2017-01-05T09:58:05.832Z,0.24
2017-01-05T09:59:05.431Z,0.23
2017-01-05T10:00:05.417Z,0.28
2017-01-05T10:01:05.398Z,0.23
2017-01-05T10:02:05.386Z,0.2
2017-01-05T10:03:05.371Z,0.18
2017-01-05T10:04:05.354Z,0.2
2017-01-05T10:05:05.337Z,0.17
2017-01-05T10:06:05.707Z,0.13
2017-01-05T10:07:05.307Z,0.08
2017-01-05T10:08:05.292Z,-0.04
2017-01-05T10:09:05.275Z,-0.08
2017-01-05T10:10:05.265Z,-0.16
2017-01-05T10:11:05.250Z,-0.08
2017-01-05T10:12:05.234Z,-0.15
2017-01-05T10:13:05.212Z,-0.16
2017-01-05T10:14:05.195Z,-0.21
2017-01-05T10:15:05.179Z,-0.14
2017-01-05T10:16:05.167Z,-0.22
2017-01-05T10:17:05.533Z,-0.26
2017-01-05T10:18:05.136Z,-0.28
2017-01-05T10:19:05.119Z,-0.21
2017-01-05T10:20:05.104Z,-0.26
2017-01-05T10:21:05.089Z,-0.33
2017-01-05T10:22:05.079Z,-0.44
2017-01-05T10:23:05.084Z,-0.42
2017-01-05T10:24:05.041Z,-0.51
2017-01-05T10:25:05.021Z,-0.44
2017-01-05T10:26:05.005Z,-0.37
2017-01-05T10:27:04.990Z,-0.46
2017-01-05T10:28:04.979Z,-0.43
2017-01-05T10:29:04.962Z,-0.39
2017-01-05T10:30:04.943Z,-0.29
2017-01-05T10:31:04.926Z,-0.39
2017-01-05T10:32:04.914Z,-0.4
2017-01-05T10:33:04.897Z,-0.44
2017-01-05T10:34:04.879Z,-0.44
2017-01-05T10:35:04.862Z,-0.55
2017-01-05T10:36:04.859Z,-0.46
2017-01-05T10:37:04.830Z,-0.42
2017-01-05T10:38:04.815Z,-0.44
2017-01-05T10:39:04.803Z,-0.51
2017-01-05T10:40:04.784Z,-0.47
2017-01-05T10:41:04.766Z,-0.49
2017-01-05T10:42:04.755Z,-0.37
2017-01-05T10:43:05.122Z,-0.4
2017-01-05T10:44:04.726Z,-0.39
2017-01-05T10:45:04.703Z,-0.42
2017-01-05T10:46:05.076Z,-0.37
2017-01-05T10:47:04.677Z,-0.25
2017-01-05T10:48:04.658Z,-0.28
2017-01-05T10:49:04.645Z,-0.28
2017-01-05T10:50:05.011Z,-0.21
2017-01-05T10:51:04.610Z,-0.11
2017-01-05T10:52:04.983Z,-0.14
2017-01-05T10:53:04.615Z,-0.18
2017-01-05T10:54:04.568Z,-0.07
2017-01-05T10:55:04.548Z,-0.04
2017-01-05T10:56:04.536Z,-0.07
2017-01-05T10:57:04.518Z,-0.05
2017-01-05T10:58:04.502Z,0
2017-01-05T10:59:04.484Z,-0.01
2017-01-05T11:00:04.475Z,-0.04
2017-01-05T11:01:04.456Z,-0.04
2017-01-05T11:02:04.440Z,-0.03
2017-01-05T11:03:04.809Z,-0.03
2017-01-05T11:04:04.409Z,-0.14
2017-01-05T11:05:04.811Z,0.02
2017-01-05T11:06:04.406Z,-0.11
2017-01-05T11:07:04.362Z,-0.05
2017-01-05T11:08:04.346Z,0.03
2017-01-05T11:09:04.332Z,-0.01
2017-01-05T11:10:04.314Z,0.03
2017-01-05T11:11:04.303Z,-0.07
2017-01-05T11:12:04.288Z,-0.04
2017-01-05T11:13:04.271Z,-0.04
2017-01-05T11:14:04.256Z,-0.18
2017-01-05T11:15:04.241Z,-0.14
2017-01-05T11:16:04.226Z,-0.14
2017-01-05T11:17:04.207Z,-0.22
2017-01-05T11:18:04.191Z,-0.33
2017-01-05T11:19:04.178Z,-0.29
2017-01-05T11:20:04.159Z,-0.31
2017-01-05T11:21:04.142Z,-0.34
2017-01-05T11:22:04.129Z,-0.37
2017-01-05T11:23:04.114Z,-0.4
2017-01-05T11:24:04.096Z,-0.46
2017-01-05T11:25:04.084Z,-0.57
2017-01-05T11:26:04.066Z,-0.54
2017-01-05T11:27:04.051Z,-0.58
2017-01-05T11:28:04.042Z,-0.58
2017-01-05T11:29:04.404Z,-0.44
2017-01-05T11:30:04.007Z,-0.39
2017-01-05T11:31:03.990Z,-0.42
2017-01-05T11:32:03.973Z,-0.43
2017-01-05T11:33:03.957Z,-0.52
2017-01-05T11:34:03.942Z,-0.61
2017-01-05T11:35:03.922Z,-0.55
2017-01-05T11:36:03.908Z,-0.69
2017-01-05T11:37:03.892Z,-0.57
2017-01-05T11:38:03.874Z,-0.61
2017-01-05T11:39:03.860Z,-0.6
2017-01-05T11:40:03.852Z,-0.57
2017-01-05T11:41:03.828Z,-0.51
2017-01-05T11:42:03.845Z,-0.55
2017-01-05T11:43:03.796Z,-0.54
2017-01-05T11:44:03.781Z,-0.61
2017-01-05T11:45:03.765Z,-0.65
2017-01-05T11:46:03.747Z,-0.6
2017-01-05T11:47:03.735Z,-0.61
2017-01-05T11:48:03.718Z,-0.65
2017-01-05T11:49:03.699Z,-0.55
2017-01-05T11:50:03.717Z,-0.69
2017-01-05T11:51:03.673Z,-0.67
2017-01-05T11:52:03.656Z,-0.67
2017-01-05T11:53:03.638Z,-0.67
2017-01-05T11:54:03.630Z,-0.69
2017-01-05T11:55:03.606Z,-0.62
2017-01-05T11:56:03.590Z,-0.65
2017-01-05T11:57:03.574Z,-0.64
2017-01-05T11:58:03.557Z,-0.67
2017-01-05T11:59:03.539Z,-0.6
2017-01-05T12:00:03.525Z,-0.51
2017-01-05T12:01:03.513Z,-0.52
2017-01-05T12:02:03.493Z,-0.65
2017-01-05T12:03:03.863Z,-0.49
2017-01-05T12:04:03.463Z,-0.61
2017-01-05T12:05:03.446Z,-0.67
2017-01-05T12:06:03.441Z,-0.79
2017-01-05T12:07:03.415Z,-0.82
2017-01-05T12:08:03.396Z,-0.95
2017-01-05T12:09:03.381Z,-0.95
2017-01-05T12:10:03.365Z,-1.17
2017-01-05T12:11:03.355Z,-1.12
2017-01-05T12:12:03.339Z,-1.1
2017-01-05T12:13:03.317Z,-1.1
2017-01-05T12:14:03.331Z,-1.01
2017-01-05T12:15:03.284Z,-1.01
2017-01-05T12:16:03.271Z,-1.01
2017-01-05T12:17:03.254Z,-0.83
2017-01-05T12:18:03.235Z,-0.82
2017-01-05T12:19:03.224Z,-0.8
2017-01-05T12:20:03.203Z,-0.99
2017-01-05T12:21:03.191Z,-1.16
2017-01-05T12:22:03.171Z,-1.15
2017-01-05T12:23:03.154Z,-1.19
2017-01-05T12:24:03.171Z,-1.38
2017-01-05T12:25:03.127Z,-1.46
2017-01-05T12:26:03.111Z,-1.43
2017-01-05T12:27:03.092Z,-1.46
2017-01-05T12:28:03.115Z,-1.48
2017-01-05T12:29:03.061Z,-1.52
2017-01-05T12:30:03.044Z,-1.48
2017-01-05T12:31:03.027Z,-1.4
2017-01-05T12:32:03.017Z,-1.38
2017-01-05T12:33:02.997Z,-1.43
2017-01-05T12:34:02.978Z,-1.48
2017-01-05T12:35:02.961Z,-1.54
2017-01-05T12:36:02.945Z,-1.48
2017-01-05T12:37:02.935Z,-1.43
2017-01-05T12:38:02.914Z,-1.45
2017-01-05T12:39:02.894Z,-1.46
2017-01-05T12:40:02.880Z,-1.3
2017-01-05T12:41:03.251Z,-1.2
2017-01-05T12:42:02.848Z,-1.16
2017-01-05T12:43:02.829Z,-1.22
2017-01-05T12:44:02.816Z,-1.2
2017-01-05T12:45:02.820Z,-1.17
2017-01-05T12:46:02.784Z,-1.17
2017-01-05T12:47:03.161Z,-1.13
2017-01-05T12:48:02.755Z,-0.97
2017-01-05T12:49:02.735Z,-0.99
2017-01-05T12:50:02.723Z,-0.97
2017-01-05T12:51:02.702Z,-0.83
2017-01-05T12:52:02.689Z,-0.8
2017-01-05T12:53:02.689Z,-0.86
2017-01-05T12:54:02.658Z,-0.75
2017-01-05T12:55:02.645Z,-0.94
2017-01-05T12:56:03.041Z,-0.8
2017-01-05T12:57:02.607Z,-1.01
2017-01-05T12:58:02.593Z,-0.99
2017-01-05T12:59:02.581Z,-0.95
2017-01-05T13:00:02.561Z,-0.95
2017-01-05T13:01:02.546Z,-0.94
2017-01-05T13:02:02.530Z,-0.92
2017-01-05T13:03:02.512Z,-0.97
2017-01-05T13:04:02.498Z,-0.95
2017-01-05T13:05:02.481Z,-1.02
2017-01-05T13:06:02.466Z,-0.99
2017-01-05T13:07:02.452Z,-0.95
2017-01-05T13:08:02.431Z,-0.94
2017-01-05T13:09:02.417Z,-1.07
2017-01-05T13:10:02.790Z,-1.15
2017-01-05T13:11:02.383Z,-1.27